createdAt,value
2023-05-10T00:00:10.431Z,74.91
2023-05-10T00:02:40.834Z,75.08
2023-05-10T00:05:08.626Z,74.92
2023-05-10T00:07:35.251Z,74.91
2023-05-10T00:10:01.858Z,75.28
2023-05-10T00:12:28.523Z,75.37
2023-05-10T00:14:55.483Z,75.38
2023-05-10T00:17:22.156Z,75.38
2023-05-10T00:19:49.190Z,75.48
2023-05-10T00:22:15.774Z,75.56
2023-05-10T00:24:42.317Z,75.69
2023-05-10T00:27:08.889Z,75.53
2023-05-10T00:29:35.716Z,75.19
2023-05-10T00:32:02.368Z,74.98
2023-05-10T00:34:29.351Z,75.18
2023-05-10T00:36:55.955Z,75.24
2023-05-10T00:39:22.755Z,75.38
2023-05-10T00:41:49.898Z,75.22
2023-05-10T00:44:16.938Z,75.28
2023-05-10T00:46:46.176Z,75.22
2023-05-10T00:49:13.941Z,75.39
2023-05-10T00:51:40.664Z,75.41
2023-05-10T00:54:07.713Z,75.75
2023-05-10T00:56:34.912Z,75.58
2023-05-10T00:59:02.142Z,75.86
2023-05-10T01:01:30.058Z,75.68
2023-05-10T01:03:57.071Z,75.93
2023-05-10T01:06:23.678Z,75.95
2023-05-10T01:08:50.823Z,76.20
2023-05-10T01:11:18.060Z,76.03
2023-05-10T01:13:53.402Z,76.10
2023-05-10T01:16:20.064Z,76.02
2023-05-10T01:18:50.166Z,75.94
2023-05-10T01:21:34.588Z,76.05
2023-05-10T01:24:16.325Z,76.10
2023-05-10T01:27:20.973Z,76.09
2023-05-10T01:30:22.363Z,75.91
2023-05-10T01:33:14.609Z,76.02
2023-05-10T01:36:00.415Z,76.00
2023-05-10T01:38:40.398Z,75.91
2023-05-10T01:41:32.010Z,76.05
2023-05-10T01:44:19.757Z,76.03
2023-05-10T01:46:54.720Z,76.25
2023-05-10T01:49:32.033Z,76.13
2023-05-10T01:52:10.576Z,76.29
2023-05-10T01:54:44.141Z,76.61
2023-05-10T01:57:15.177Z,76.84
2023-05-10T01:59:46.573Z,76.83
2023-05-10T02:02:16.105Z,76.77
2023-05-10T02:04:43.901Z,76.78
2023-05-10T02:07:11.847Z,76.55
2023-05-10T02:09:39.641Z,76.51
2023-05-10T02:12:07.917Z,76.40
2023-05-10T02:14:37.391Z,76.55
2023-05-10T02:17:06.459Z,76.61
2023-05-10T02:19:34.913Z,76.59
2023-05-10T02:22:03.566Z,76.53
2023-05-10T02:24:31.490Z,76.50
2023-05-10T02:27:01.532Z,76.58
2023-05-10T02:29:29.395Z,76.63
2023-05-10T02:31:58.610Z,76.82
2023-05-10T02:34:27.808Z,76.65
2023-05-10T02:36:57.062Z,76.30
2023-05-10T02:39:24.860Z,76.36
2023-05-10T02:41:54.543Z,76.29
2023-05-10T02:44:23.045Z,76.63
2023-05-10T02:46:49.748Z,76.75
2023-05-10T02:49:17.055Z,76.75
2023-05-10T02:51:51.099Z,76.86
2023-05-10T02:54:22.106Z,77.02
2023-05-10T02:57:02.731Z,76.99
2023-05-10T02:59:29.452Z,77.13
2023-05-10T03:01:56.447Z,77.33
2023-05-10T03:04:23.276Z,77.21
2023-05-10T03:06:51.587Z,77.20
2023-05-10T03:09:18.308Z,77.37
2023-05-10T03:12:06.547Z,76.92
2023-05-10T03:14:47.036Z,76.90
2023-05-10T03:17:42.879Z,77.00
2023-05-10T03:20:20.350Z,77.06
2023-05-10T03:22:54.663Z,77.19
2023-05-10T03:25:23.600Z,77.34
2023-05-10T03:27:52.682Z,77.49
2023-05-10T03:30:20.521Z,77.66
2023-05-10T03:32:47.320Z,77.82
2023-05-10T03:35:16.436Z,77.73
2023-05-10T03:37:43.841Z,77.92
2023-05-10T03:40:11.168Z,78.07
2023-05-10T03:42:39.383Z,78.12
2023-05-10T03:45:08.369Z,78.17
2023-05-10T03:47:34.947Z,78.31
2023-05-10T03:50:04.540Z,78.19
2023-05-10T03:52:31.261Z,78.30
2023-05-10T03:54:57.954Z,78.26
2023-05-10T03:57:24.779Z,78.32
2023-05-10T03:59:51.431Z,78.11
2023-05-10T04:02:18.032Z,78.19
2023-05-10T04:04:44.629Z,78.27
2023-05-10T04:07:11.782Z,78.22
2023-05-10T04:09:38.551Z,78.18
2023-05-10T04:12:05.597Z,78.04
2023-05-10T04:14:32.309Z,77.97
2023-05-10T04:16:59.167Z,77.99
2023-05-10T04:19:33.067Z,77.98
2023-05-10T04:21:59.913Z,77.93
2023-05-10T04:24:26.580Z,77.98
2023-05-10T04:26:53.327Z,77.85
2023-05-10T04:29:19.901Z,77.83
2023-05-10T04:31:46.564Z,77.80
2023-05-10T04:34:13.420Z,77.91
2023-05-10T04:36:40.012Z,77.93
2023-05-10T04:39:06.634Z,77.82
2023-05-10T04:41:33.213Z,77.87
2023-05-10T04:43:59.818Z,77.88
2023-05-10T04:46:26.595Z,77.70
2023-05-10T04:48:53.150Z,77.69
2023-05-10T04:51:19.851Z,77.83
2023-05-10T04:53:54.407Z,77.67
2023-05-10T04:56:32.017Z,77.65
2023-05-10T04:58:58.755Z,77.69
2023-05-10T05:01:25.477Z,77.55
2023-05-10T05:03:53.986Z,77.40
2023-05-10T05:06:22.298Z,77.39
2023-05-10T05:08:50.641Z,77.49
2023-05-10T05:11:18.317Z,77.47
2023-05-10T05:13:45.085Z,77.69
2023-05-10T05:16:12.541Z,77.69
2023-05-10T05:18:39.811Z,77.84
2023-05-10T05:21:20.785Z,78.13
2023-05-10T05:23:47.587Z,77.97
2023-05-10T05:26:14.174Z,77.92
2023-05-10T05:28:40.831Z,77.74
2023-05-10T05:31:08.783Z,77.78
2023-05-10T05:33:35.784Z,77.93
2023-05-10T05:36:04.687Z,78.26
2023-05-10T05:38:31.587Z,78.66
2023-05-10T05:40:58.398Z,79.00
2023-05-10T05:43:25.702Z,79.22
2023-05-10T05:45:55.949Z,79.50
2023-05-10T05:48:22.601Z,79.67
2023-05-10T05:50:49.147Z,78.94
2023-05-10T05:53:15.878Z,78.46
2023-05-10T05:55:55.489Z,78.43
2023-05-10T05:58:23.455Z,78.33
2023-05-10T06:00:50.725Z,78.09
2023-05-10T06:03:17.703Z,77.67
2023-05-10T06:05:44.834Z,77.66
2023-05-10T06:08:11.717Z,77.53
2023-05-10T06:10:38.340Z,77.55
2023-05-10T06:13:05.227Z,77.46
2023-05-10T06:15:31.932Z,77.67
2023-05-10T06:17:58.598Z,77.73
2023-05-10T06:20:25.504Z,77.47
2023-05-10T06:22:52.194Z,77.40
2023-05-10T06:25:21.584Z,77.18
2023-05-10T06:27:52.701Z,76.86
2023-05-10T06:30:21.285Z,76.90
2023-05-10T06:32:48.146Z,76.70
2023-05-10T06:35:15.072Z,76.82
2023-05-10T06:37:42.044Z,76.93
2023-05-10T06:40:10.024Z,76.81
2023-05-10T06:42:36.818Z,76.88
2023-05-10T06:45:03.771Z,76.68
2023-05-10T06:47:30.475Z,76.62
2023-05-10T06:49:57.049Z,76.61
2023-05-10T06:52:24.480Z,76.61
2023-05-10T06:54:51.078Z,76.39
2023-05-10T06:57:30.565Z,76.06
2023-05-10T07:00:00.190Z,75.87
2023-05-10T07:02:28.302Z,75.94
2023-05-10T07:04:55.217Z,75.69
2023-05-10T07:07:22.327Z,75.53
2023-05-10T07:09:49.999Z,75.21
2023-05-10T07:12:16.786Z,74.78
2023-05-10T07:14:43.558Z,74.41
2023-05-10T07:17:10.908Z,73.31
2023-05-10T07:19:37.878Z,72.73
2023-05-10T07:22:04.646Z,71.90
2023-05-10T07:24:32.343Z,70.40
2023-05-10T07:26:58.949Z,70.03
2023-05-10T07:29:26.033Z,69.30
2023-05-10T07:31:52.875Z,69.74
2023-05-10T07:34:19.824Z,69.52
2023-05-10T07:36:46.590Z,68.74
2023-05-10T07:39:21.238Z,67.81
2023-05-10T07:41:51.493Z,67.10
2023-05-10T07:44:20.206Z,66.38
2023-05-10T07:46:48.621Z,64.66
2023-05-10T07:49:15.644Z,63.70
2023-05-10T07:54:58.439Z,60.27
2023-05-10T07:57:25.086Z,58.79
2023-05-10T07:59:51.824Z,58.30
2023-05-10T08:02:18.470Z,57.34
2023-05-10T08:04:45.246Z,56.93
2023-05-10T08:07:12.226Z,55.29
2023-05-10T08:09:38.873Z,54.65
2023-05-10T08:12:14.085Z,52.93
2023-05-10T08:15:31.822Z,52.20
2023-05-10T08:18:01.985Z,53.28
2023-05-10T08:20:29.010Z,53.93
2023-05-10T08:22:58.374Z,54.30
2023-05-10T08:25:25.110Z,53.51
2023-05-10T08:27:53.560Z,53.89
2023-05-10T08:30:27.577Z,53.56
2023-05-10T08:32:54.445Z,55.03
2023-05-10T08:35:21.100Z,56.26
2023-05-10T08:37:48.502Z,57.16
2023-05-10T08:49:32.614Z,59.00
2023-05-10T08:52:04.634Z,59.53
2023-05-10T08:54:34.289Z,60.12
2023-05-10T08:57:01.551Z,60.34
2023-05-10T08:59:28.687Z,60.78
2023-05-10T09:01:59.021Z,61.27
2023-05-10T09:04:26.189Z,61.48
2023-05-10T09:06:53.394Z,61.47
2023-05-10T09:09:21.702Z,60.91
2023-05-10T09:11:48.718Z,58.84
2023-05-10T09:14:16.842Z,55.21
2023-05-10T09:16:43.784Z,51.81
2023-05-10T09:19:10.738Z,49.16
2023-05-10T09:21:39.301Z,48.14
2023-05-10T09:24:09.909Z,48.40
2023-05-10T09:26:47.809Z,49.70
2023-05-10T09:29:15.993Z,50.30
2023-05-10T09:31:52.645Z,49.52
2023-05-10T09:34:29.453Z,49.61
2023-05-10T09:37:06.280Z,50.65
2023-05-10T09:39:35.574Z,50.96
2023-05-10T09:42:08.001Z,50.59
2023-05-10T09:44:36.437Z,50.43
2023-05-10T09:47:03.540Z,50.39
2023-05-10T09:49:31.052Z,50.22
2023-05-10T09:52:08.375Z,49.93
2023-05-10T09:54:35.926Z,49.38
2023-05-10T09:57:03.106Z,49.31
2023-05-10T09:59:31.245Z,48.68
2023-05-10T10:02:01.292Z,48.62
2023-05-10T10:04:28.591Z,49.16
2023-05-10T10:07:05.775Z,49.37
2023-05-10T10:09:34.737Z,49.71
2023-05-10T10:12:03.327Z,49.66
2023-05-10T10:14:30.760Z,49.26
2023-05-10T10:17:07.249Z,49.89
2023-05-10T10:19:37.117Z,49.11
2023-05-10T10:22:04.241Z,48.84
2023-05-10T10:24:31.174Z,48.41
2023-05-10T10:27:29.872Z,48.64
2023-05-10T10:30:27.234Z,48.28
2023-05-10T10:33:32.142Z,48.93
2023-05-10T10:36:01.573Z,49.12
2023-05-10T10:38:46.998Z,48.70
2023-05-10T10:41:50.617Z,47.93
2023-05-10T10:44:24.597Z,46.66
2023-05-10T10:47:14.094Z,45.98
2023-05-10T10:49:40.812Z,46.46
2023-05-10T10:52:32.091Z,46.39
2023-05-10T10:55:12.044Z,47.84
2023-05-10T10:57:41.976Z,49.04
2023-05-10T11:00:46.485Z,50.55
2023-05-10T11:03:15.737Z,52.39
2023-05-10T11:05:45.179Z,53.58
2023-05-10T11:08:26.984Z,54.66
2023-05-10T11:11:04.556Z,54.67
2023-05-10T11:13:40.008Z,54.30
2023-05-10T11:16:22.494Z,55.22
2023-05-10T11:19:04.763Z,56.76
2023-05-10T11:21:33.748Z,57.34
2023-05-10T11:24:06.607Z,57.59
2023-05-10T11:26:36.136Z,58.17
2023-05-10T11:29:04.252Z,58.74
2023-05-10T11:31:31.007Z,59.81
2023-05-10T11:34:01.128Z,59.61
2023-05-10T11:36:30.634Z,60.30
2023-05-10T11:38:58.288Z,60.59
2023-05-10T11:41:26.084Z,61.59
2023-05-10T11:43:56.919Z,62.19
2023-05-10T11:46:27.604Z,62.69
2023-05-10T11:49:01.543Z,63.13
2023-05-10T11:51:28.635Z,63.41
2023-05-10T11:53:57.943Z,63.81
2023-05-10T11:56:25.816Z,63.88
2023-05-10T11:58:59.353Z,64.29
2023-05-10T12:01:28.489Z,64.50
2023-05-10T12:04:01.634Z,63.94
2023-05-10T12:06:32.719Z,63.87
2023-05-10T12:09:00.043Z,64.07
2023-05-10T12:11:29.286Z,64.34
2023-05-10T12:13:57.371Z,64.87
2023-05-10T12:16:27.051Z,64.58
2023-05-10T12:18:59.628Z,64.35
2023-05-10T12:21:28.549Z,64.97
2023-05-10T12:24:01.220Z,65.32
2023-05-10T12:26:29.130Z,65.09
2023-05-10T12:28:56.874Z,65.54
2023-05-10T12:31:23.526Z,66.02
2023-05-10T12:33:50.426Z,65.97
2023-05-10T12:36:18.889Z,66.24
2023-05-10T12:38:49.401Z,66.33
2023-05-10T12:41:18.756Z,66.20
2023-05-10T12:43:49.213Z,65.46
2023-05-10T12:46:19.604Z,65.98
2023-05-10T12:49:06.821Z,65.83
2023-05-10T12:51:35.597Z,65.91
2023-05-10T12:54:04.094Z,65.42
2023-05-10T12:56:30.757Z,66.29
2023-05-10T12:58:57.375Z,66.33
2023-05-10T13:01:24.020Z,66.13
2023-05-10T13:03:51.504Z,66.28
2023-05-10T13:06:18.097Z,65.96
2023-05-10T13:08:44.719Z,66.11
2023-05-10T13:11:11.468Z,66.38
2023-05-10T13:13:38.092Z,66.54
2023-05-10T13:16:05.188Z,65.93
2023-05-10T13:18:31.846Z,66.37
2023-05-10T13:20:58.509Z,66.72
2023-05-10T13:23:25.215Z,67.20
2023-05-10T13:25:51.805Z,67.57
2023-05-10T13:28:18.462Z,66.56
2023-05-10T13:30:45.076Z,67.05
2023-05-10T13:33:11.659Z,66.82
2023-05-10T13:35:38.760Z,67.02
2023-05-10T13:38:05.298Z,66.52
2023-05-10T13:40:31.978Z,66.71
2023-05-10T13:42:58.574Z,67.01
2023-05-10T13:45:25.251Z,67.71
2023-05-10T13:47:53.235Z,67.93
2023-05-10T13:50:20.165Z,68.33
2023-05-10T13:52:46.716Z,68.30
2023-05-10T13:55:14.405Z,68.69
2023-05-10T13:57:41.016Z,67.85
2023-05-10T14:00:08.750Z,67.48
2023-05-10T14:02:35.500Z,68.13
2023-05-10T14:05:02.296Z,68.30
2023-05-10T14:07:28.824Z,68.26
2023-05-10T14:09:55.401Z,68.92
2023-05-10T14:12:22.047Z,68.91
2023-05-10T14:14:48.629Z,68.95
2023-05-10T14:17:15.252Z,68.88
2023-05-10T14:19:41.888Z,68.31
2023-05-10T14:22:08.591Z,68.27
2023-05-10T14:24:35.122Z,68.14
2023-05-10T14:27:01.757Z,67.16
2023-05-10T14:29:28.545Z,67.47
2023-05-10T14:31:55.305Z,67.82
2023-05-10T14:34:22.070Z,68.03
2023-05-10T14:36:48.617Z,67.85
2023-05-10T14:39:15.291Z,68.09
2023-05-10T14:41:43.814Z,68.08
2023-05-10T14:44:11.569Z,67.91
2023-05-10T14:46:38.830Z,68.28
2023-05-10T14:49:05.414Z,68.28
2023-05-10T14:51:32.715Z,68.27
2023-05-10T14:53:59.541Z,68.28
2023-05-10T14:56:26.968Z,68.32
2023-05-10T14:58:53.594Z,68.65
2023-05-10T15:01:20.826Z,68.38
2023-05-10T15:03:48.056Z,68.00
2023-05-10T15:06:19.045Z,68.36
2023-05-10T15:08:45.710Z,68.17
2023-05-10T15:11:12.368Z,68.34
2023-05-10T15:13:38.912Z,68.38
2023-05-10T15:16:05.679Z,68.79
2023-05-10T15:18:32.302Z,69.18
2023-05-10T15:20:58.953Z,69.11
2023-05-10T15:23:25.626Z,69.03
2023-05-10T15:25:56.391Z,68.90
2023-05-10T15:28:23.423Z,68.87
2023-05-10T15:30:51.011Z,68.76
2023-05-10T15:33:17.611Z,69.05
2023-05-10T15:35:44.334Z,68.64
2023-05-10T15:38:11.289Z,68.64
2023-05-10T15:40:37.935Z,69.30
2023-05-10T15:43:06.265Z,69.51
2023-05-10T15:45:34.608Z,69.55
2023-05-10T15:48:03.635Z,69.33
2023-05-10T15:50:30.170Z,69.55
2023-05-10T15:52:56.894Z,69.64
2023-05-10T15:55:23.549Z,69.76
2023-05-10T15:57:50.484Z,70.12
2023-05-10T16:00:17.911Z,69.88
2023-05-10T16:02:44.694Z,70.08
2023-05-10T16:05:11.524Z,70.00
2023-05-10T16:07:38.136Z,70.24
2023-05-10T16:10:06.623Z,70.51
2023-05-10T16:12:33.416Z,70.45
2023-05-10T16:14:59.946Z,70.39
2023-05-10T16:17:26.702Z,70.89
2023-05-10T16:19:53.600Z,70.85
2023-05-10T16:22:22.357Z,70.90
2023-05-10T16:24:53.598Z,70.74
2023-05-10T16:27:20.351Z,70.78
2023-05-10T16:29:48.172Z,70.60
2023-05-10T16:32:14.834Z,70.66
2023-05-10T16:34:41.669Z,71.12
2023-05-10T16:37:08.301Z,71.44
2023-05-10T16:39:34.946Z,71.55
2023-05-10T16:42:01.684Z,71.79
2023-05-10T16:44:28.389Z,71.74
2023-05-10T16:46:55.174Z,71.86
2023-05-10T16:49:24.345Z,71.77
2023-05-10T16:51:52.503Z,71.84
2023-05-10T16:54:20.224Z,72.23
2023-05-10T16:56:46.833Z,72.20
2023-05-10T16:59:13.685Z,72.26
2023-05-10T17:01:40.417Z,72.21
2023-05-10T17:04:07.440Z,72.25
2023-05-10T17:06:36.987Z,71.42
2023-05-10T17:09:04.169Z,71.72
2023-05-10T17:11:31.190Z,71.65
2023-05-10T17:14:01.418Z,71.74
2023-05-10T17:16:29.867Z,72.05
2023-05-10T17:19:00.181Z,71.80
2023-05-10T17:21:29.058Z,71.49
2023-05-10T17:23:55.731Z,71.53
2023-05-10T17:26:22.513Z,71.89
2023-05-10T17:28:49.182Z,72.15
2023-05-10T17:31:15.892Z,72.56
2023-05-10T17:33:42.630Z,72.53
2023-05-10T17:36:09.360Z,72.12
2023-05-10T17:38:36.834Z,71.90
2023-05-10T17:41:03.823Z,71.84
2023-05-10T17:43:30.400Z,71.93
2023-05-10T17:45:56.990Z,71.90
2023-05-10T17:48:23.705Z,72.11
2023-05-10T17:50:51.492Z,72.14
2023-05-10T17:53:18.486Z,72.11
2023-05-10T17:55:45.319Z,72.02
2023-05-10T17:58:12.355Z,72.24
2023-05-10T18:00:39.256Z,72.53
2023-05-10T18:03:06.142Z,72.33
2023-05-10T18:05:37.406Z,72.31
2023-05-10T18:08:05.518Z,72.75
2023-05-10T18:10:32.427Z,72.95
2023-05-10T18:12:59.118Z,73.13
2023-05-10T18:15:27.588Z,73.42
2023-05-10T18:17:54.348Z,73.53
2023-05-10T18:20:21.079Z,73.72
2023-05-10T18:22:47.929Z,73.90
2023-05-10T18:25:14.804Z,73.79
2023-05-10T18:27:41.640Z,73.85
2023-05-10T18:30:10.088Z,74.21
2023-05-10T18:32:38.452Z,74.28
2023-05-10T18:35:07.675Z,74.38
2023-05-10T18:37:35.103Z,74.26
2023-05-10T18:40:02.339Z,74.02
2023-05-10T18:42:29.041Z,73.84
2023-05-10T18:44:55.863Z,73.56
2023-05-10T18:47:22.668Z,73.61
2023-05-10T18:49:49.340Z,73.79
2023-05-10T18:52:16.139Z,73.79
2023-05-10T18:54:42.816Z,73.70
2023-05-10T18:57:09.512Z,73.86
2023-05-10T18:59:36.090Z,74.26
2023-05-10T19:02:02.805Z,74.15
2023-05-10T19:04:29.533Z,74.41
2023-05-10T19:06:56.275Z,74.82
2023-05-10T19:09:23.433Z,74.53
2023-05-10T19:11:51.827Z,74.68
2023-05-10T19:14:18.521Z,74.29
2023-05-10T19:16:45.223Z,74.68
2023-05-10T19:19:14.394Z,74.44
2023-05-10T19:21:41.245Z,74.20
2023-05-10T19:24:07.895Z,74.26
2023-05-10T19:26:35.109Z,74.32
2023-05-10T19:29:04.114Z,74.57
2023-05-10T19:31:31.019Z,74.39
2023-05-10T19:34:00.533Z,74.31
2023-05-10T19:36:27.592Z,74.48
2023-05-10T19:38:54.245Z,74.48
2023-05-10T19:41:22.375Z,74.28
2023-05-10T19:43:49.077Z,74.51
2023-05-10T19:46:17.829Z,74.89
2023-05-10T19:48:46.082Z,74.57
2023-05-10T19:51:12.674Z,74.70
2023-05-10T19:53:44.209Z,75.02
2023-05-10T19:56:11.522Z,75.36
2023-05-10T19:58:38.203Z,75.05
2023-05-10T20:01:07.536Z,74.92
2023-05-10T20:03:36.106Z,75.41
2023-05-10T20:06:04.281Z,75.24
2023-05-10T20:08:31.520Z,75.01
2023-05-10T20:10:59.158Z,75.10
2023-05-10T20:13:27.483Z,75.20
2023-05-10T20:15:59.664Z,75.76
2023-05-10T20:18:29.319Z,75.77
2023-05-10T20:21:00.009Z,75.69
2023-05-10T20:23:27.013Z,75.70
2023-05-10T20:25:54.910Z,76.00
2023-05-10T20:28:24.070Z,76.13
2023-05-10T20:30:54.879Z,75.90
2023-05-10T20:33:22.948Z,75.71
2023-05-10T20:35:50.475Z,75.85
2023-05-10T20:38:18.217Z,75.87
2023-05-10T20:40:45.581Z,75.88
2023-05-10T20:43:12.625Z,75.90
2023-05-10T20:45:39.352Z,76.17
2023-05-10T20:48:06.453Z,76.43
2023-05-10T20:50:33.165Z,76.14
2023-05-10T20:53:00.975Z,76.21
2023-05-10T20:55:28.559Z,76.18
2023-05-10T20:57:55.507Z,76.07
2023-05-10T21:00:22.278Z,76.19
2023-05-10T21:02:49.049Z,76.36
2023-05-10T21:05:17.842Z,76.56
2023-05-10T21:07:44.485Z,76.22
2023-05-10T21:10:12.013Z,76.28
2023-05-10T21:12:38.662Z,76.10
2023-05-10T21:15:05.996Z,76.04
2023-05-10T21:17:32.771Z,75.90
2023-05-10T21:19:59.455Z,75.64
2023-05-10T21:22:26.538Z,75.46
2023-05-10T21:24:53.243Z,75.68
2023-05-10T21:27:19.911Z,75.54
2023-05-10T21:29:46.566Z,75.58
2023-05-10T21:32:13.323Z,75.90
2023-05-10T21:34:39.994Z,75.67
2023-05-10T21:37:06.810Z,75.83
2023-05-10T21:39:33.382Z,75.92
2023-05-10T21:42:00.392Z,75.96
2023-05-10T21:44:27.110Z,75.93
2023-05-10T21:46:53.686Z,75.76
2023-05-10T21:49:20.354Z,75.65
2023-05-10T21:51:47.413Z,75.79
2023-05-10T21:54:14.246Z,75.93
2023-05-10T21:56:40.901Z,75.89
2023-05-10T21:59:07.638Z,75.82
2023-05-10T22:01:34.469Z,75.88
2023-05-10T22:04:01.204Z,76.21
2023-05-10T22:06:27.808Z,76.12
2023-05-10T22:08:54.845Z,76.07
2023-05-10T22:11:21.848Z,76.22
2023-05-10T22:13:48.665Z,76.33
2023-05-10T22:16:15.623Z,76.25
2023-05-10T22:18:43.675Z,76.44
2023-05-10T22:21:10.669Z,76.20
2023-05-10T22:23:37.357Z,76.24
2023-05-10T22:26:04.588Z,76.48
2023-05-10T22:28:31.315Z,76.53
2023-05-10T22:30:58.036Z,76.29
2023-05-10T22:33:24.618Z,76.58
2023-05-10T22:35:51.321Z,76.87
2023-05-10T22:38:17.945Z,76.88
2023-05-10T22:40:44.528Z,76.88
2023-05-10T22:43:11.280Z,76.83
2023-05-10T22:45:37.984Z,76.58
2023-05-10T22:48:05.141Z,76.68
2023-05-10T22:50:31.960Z,76.79
2023-05-10T22:52:58.565Z,76.63
2023-05-10T22:55:25.230Z,76.54
2023-05-10T22:57:52.437Z,76.62
2023-05-10T23:00:20.061Z,76.71
2023-05-10T23:02:47.106Z,76.87
2023-05-10T23:05:13.981Z,76.95
2023-05-10T23:07:40.807Z,76.83
2023-05-10T23:10:08.284Z,76.91
2023-05-10T23:12:34.993Z,77.04
2023-05-10T23:15:01.640Z,76.91
2023-05-10T23:17:28.375Z,76.86
2023-05-10T23:19:55.074Z,77.01
2023-05-10T23:22:21.808Z,77.01
2023-05-10T23:24:48.486Z,77.09
2023-05-10T23:27:15.090Z,77.17
2023-05-10T23:29:41.996Z,77.44
2023-05-10T23:32:08.712Z,77.60
2023-05-10T23:34:35.515Z,77.38
2023-05-10T23:37:02.455Z,77.50
2023-05-10T23:39:29.135Z,77.49
2023-05-10T23:41:55.922Z,77.52
2023-05-10T23:44:22.577Z,77.69
2023-05-10T23:46:49.104Z,77.63
2023-05-10T23:49:15.689Z,77.41
2023-05-10T23:51:42.361Z,77.63
2023-05-10T23:54:09.020Z,77.63
2023-05-10T23:56:36.128Z,77.87
2023-05-10T23:59:02.737Z,77.61
